Terminal Aerodrome Forecast
Issued by NWS

Home | Current Version | Previous Version | Text Only | Print | Product List | Glossary On
Versions: 1 2 3 4 5 6 7 8 9 10 11 12 13 14 15
000
FTAK31 PAJN 261700
TAFAKT
TAF
PAKT 261736Z 2618/2718 16005KT 4SM -SHRA BR SCT005 OVC013
      TEMPO 2618/2622 BKN006
     FM270300 14011KT 3SM -RA BKN008 OVC013
     FM270800 31010KT 4SM -SHRA SCT008 OVC015
     FM271200 31008KT P6SM SCT008 BKN030
     FM271600 31006KT P6SM FEW010 SCT050
      AMD LTD TO CLD VIS AND WIND 2706/2715=

USA.gov is the U.S. government's official web portal to all federal, state and local government web resources and services.